Time;durP1;ratioP1;P1;durP2;ratioP2;P2;SDS_P1;SDS_P2;PMS_P1;PMS_P2;Temp;Humidity;BMP_temperature;BMP_pressure;BME280_temperature;BME280_humidity;BME280_pressure;Samples;Min_cycle;Max_cycle;Signal;HPM_P1;HPM_P2
2020/12/27 00:02:11;;;;;;;8.00;6.93;;;-2.80;99.90;;;;;;4937496;29;20186;-77
2020/12/27 00:04:40;;;;;;;8.67;7.13;;;-2.80;99.90;;;;;;4938996;29;20325;-77
2020/12/27 00:07:13;;;;;;;9.93;6.47;;;-2.80;99.90;;;;;;4938340;29;20209;-78
2020/12/27 00:09:40;;;;;;;10.10;6.67;;;-2.80;99.90;;;;;;4937236;29;20205;-77
2020/12/27 00:12:07;;;;;;;7.27;6.50;;;-2.80;99.90;;;;;;4937296;29;20174;-78
2020/12/27 00:14:33;;;;;;;11.53;7.63;;;-2.90;99.90;;;;;;4938342;29;20197;-78
2020/12/27 00:17:03;;;;;;;8.40;7.40;;;-2.90;99.90;;;;;;4938486;29;20186;-77
2020/12/27 00:19:30;;;;;;;7.53;6.73;;;-3.00;99.90;;;;;;4938752;29;20648;-78
2020/12/27 00:21:56;;;;;;;9.80;7.43;;;-3.00;99.90;;;;;;4938558;29;20174;-77
2020/12/27 00:24:23;;;;;;;12.03;8.23;;;-3.10;99.90;;;;;;4938440;29;20186;-77
2020/12/27 00:26:48;;;;;;;7.33;6.63;;;-3.20;99.90;;;;;;4936656;29;20182;-77
2020/12/27 00:29:14;;;;;;;10.03;7.40;;;-3.30;99.90;;;;;;4937811;29;20289;-77
2020/12/27 00:31:40;;;;;;;8.60;7.33;;;-3.30;99.90;;;;;;4938344;29;20184;-77
2020/12/27 00:34:06;;;;;;;8.93;7.00;;;-3.40;99.90;;;;;;4936975;29;20174;-77
2020/12/27 00:36:31;;;;;;;7.97;7.03;;;-3.40;99.90;;;;;;4937698;29;20218;-77
2020/12/27 00:38:57;;;;;;;10.10;7.43;;;-3.40;99.90;;;;;;4936676;29;20612;-77
2020/12/27 00:41:24;;;;;;;7.97;7.17;;;-3.30;99.90;;;;;;4938072;29;20754;-75
2020/12/27 00:43:51;;;;;;;7.93;7.13;;;-3.30;99.90;;;;;;4937935;29;20174;-76
2020/12/27 00:46:17;;;;;;;8.93;7.00;;;-3.30;99.90;;;;;;4937549;29;20272;-76
2020/12/27 00:48:43;;;;;;;9.07;6.63;;;-3.20;99.90;;;;;;4937783;29;20183;-75
2020/12/27 00:51:08;;;;;;;8.33;7.33;;;-3.20;99.90;;;;;;4937883;29;20183;-77
2020/12/27 00:53:34;;;;;;;10.67;7.27;;;-3.20;99.90;;;;;;4937797;29;20180;-75
2020/12/27 00:56:00;;;;;;;8.70;7.30;;;-3.30;99.90;;;;;;4937560;29;20630;-77
2020/12/27 00:58:29;;;;;;;8.00;7.20;;;-3.30;99.90;;;;;;4937983;29;20527;-76
2020/12/27 01:00:59;;;;;;;7.70;6.90;;;-3.30;99.90;;;;;;4936496;29;20184;-75
2020/12/27 01:03:25;;;;;;;9.67;8.23;;;-3.30;99.90;;;;;;4937686;29;20185;-77
2020/12/27 01:05:51;;;;;;;11.67;7.73;;;-3.40;99.90;;;;;;4937235;29;20280;-78
2020/12/27 01:08:17;;;;;;;11.47;7.43;;;-3.40;99.90;;;;;;4937763;29;20182;-77
2020/12/27 01:10:43;;;;;;;11.20;8.33;;;-3.50;99.90;;;;;;4937731;29;20256;-77
2020/12/27 01:13:09;;;;;;;10.93;8.07;;;-3.50;99.90;;;;;;4937213;29;20174;-77
2020/12/27 01:15:38;;;;;;;9.30;8.00;;;-3.50;99.90;;;;;;4937046;29;20194;-77
2020/12/27 01:18:05;;;;;;;9.07;7.53;;;-3.50;99.90;;;;;;4937306;29;20305;-77
2020/12/27 01:20:30;;;;;;;11.33;8.23;;;-3.50;99.90;;;;;;4937441;29;20172;-77
2020/12/27 01:22:57;;;;;;;8.70;7.47;;;-3.50;99.90;;;;;;4936354;29;20192;-77
2020/12/27 01:25:23;;;;;;;9.17;7.20;;;-3.40;99.90;;;;;;4935869;29;20209;-77
2020/12/27 01:27:49;;;;;;;10.63;8.00;;;-3.50;99.90;;;;;;4936310;29;20325;-77
2020/12/27 01:30:14;;;;;;;7.60;6.90;;;-3.50;99.90;;;;;;4937032;29;20280;-77
2020/12/27 01:32:41;;;;;;;9.07;8.13;;;-3.50;99.90;;;;;;4935777;29;20178;-77
2020/12/27 01:35:07;;;;;;;8.50;7.33;;;-3.40;99.90;;;;;;4935327;29;20206;-77
2020/12/27 01:37:33;;;;;;;8.53;7.47;;;-3.40;99.90;;;;;;4935948;29;20385;-77
2020/12/27 01:39:59;;;;;;;9.93;8.13;;;-3.40;99.90;;;;;;4937024;29;20194;-77
2020/12/27 01:42:24;;;;;;;9.17;8.20;;;-3.40;99.90;;;;;;4936836;29;20175;-77
2020/12/27 01:44:50;;;;;;;8.83;7.43;;;-3.50;99.90;;;;;;4936473;29;20220;-77
2020/12/27 01:47:19;;;;;;;8.97;7.43;;;-3.50;99.90;;;;;;4936647;29;20213;-78
2020/12/27 01:49:50;;;;;;;8.17;7.27;;;-3.40;99.90;;;;;;4936737;29;20277;-77
2020/12/27 01:52:16;;;;;;;8.33;7.53;;;-3.40;99.90;;;;;;4935417;29;20204;-77
2020/12/27 01:54:43;;;;;;;9.47;7.60;;;-3.40;99.90;;;;;;4936645;29;20618;-77
2020/12/27 01:57:13;;;;;;;9.67;8.37;;;-3.50;99.90;;;;;;4936752;29;20182;-77
2020/12/27 01:59:39;;;;;;;8.77;7.50;;;-3.50;99.90;;;;;;4935347;29;20216;-77
2020/12/27 02:02:07;;;;;;;8.33;7.37;;;-3.60;99.90;;;;;;4936661;29;20198;-77
2020/12/27 02:04:34;;;;;;;9.40;8.17;;;-3.60;99.90;;;;;;4936331;29;20205;-77
2020/12/27 02:07:00;;;;;;;8.83;7.70;;;-3.60;99.90;;;;;;4936160;29;20189;-77
2020/12/27 02:09:25;;;;;;;8.00;7.20;;;-3.60;99.90;;;;;;4936303;29;20194;-77
2020/12/27 02:12:11;;;;;;;8.47;7.63;;;-3.60;99.90;;;;;;4935094;29;20599;-77
2020/12/27 02:14:38;;;;;;;9.50;7.90;;;-3.70;99.90;;;;;;4936300;29;20280;-77
2020/12/27 02:17:05;;;;;;;8.40;7.57;;;-3.70;99.90;;;;;;4934727;29;20174;-77
2020/12/27 02:19:31;;;;;;;9.37;7.83;;;-3.80;99.90;;;;;;4934932;29;20177;-77
2020/12/27 02:21:57;;;;;;;9.03;7.53;;;-3.80;99.90;;;;;;4936144;29;20178;-77
2020/12/27 02:24:24;;;;;;;8.43;7.53;;;-3.70;99.90;;;;;;4934987;29;20217;-77
2020/12/27 02:27:00;;;;;;;10.37;8.13;;;-3.80;99.90;;;;;;4935407;29;20182;-77
2020/12/27 02:29:30;;;;;;;10.03;8.03;;;-3.80;99.90;;;;;;4935155;29;20609;-76
2020/12/27 02:31:56;;;;;;;9.93;7.60;;;-3.80;99.90;;;;;;4935975;29;20166;-77
2020/12/27 02:34:23;;;;;;;8.00;7.17;;;-3.80;99.90;;;;;;4934671;29;20610;-77
2020/12/27 02:36:49;;;;;;;8.40;7.50;;;-3.80;99.90;;;;;;4935574;29;20181;-76
2020/12/27 02:39:17;;;;;;;9.27;7.43;;;-3.80;99.90;;;;;;4934624;29;20177;-77
2020/12/27 02:41:43;;;;;;;10.20;7.83;;;-3.80;99.90;;;;;;4935831;29;20213;-76
2020/12/27 02:44:09;;;;;;;7.77;7.00;;;-3.80;99.90;;;;;;4934439;29;20229;-76
2020/12/27 02:46:35;;;;;;;8.30;7.43;;;-3.80;99.90;;;;;;4935327;29;20629;-77
2020/12/27 02:49:01;;;;;;;11.40;7.90;;;-3.80;99.90;;;;;;4935566;29;20233;-77
2020/12/27 02:51:28;;;;;;;9.37;7.53;;;-3.90;99.90;;;;;;4935749;29;20179;-77
2020/12/27 02:53:55;;;;;;;9.83;8.00;;;-3.80;99.90;;;;;;4934391;29;20213;-77
2020/12/27 02:56:24;;;;;;;8.53;7.63;;;-3.80;99.90;;;;;;4935220;29;20194;-77
2020/12/27 02:58:50;;;;;;;9.67;7.67;;;-3.80;99.90;;;;;;4935618;29;20181;-76
2020/12/27 03:01:17;;;;;;;10.30;7.97;;;-3.80;99.90;;;;;;4935601;29;20251;-77
2020/12/27 03:03:43;;;;;;;9.93;8.30;;;-3.80;99.90;;;;;;4934309;29;20627;-76
2020/12/27 03:06:10;;;;;;;9.27;8.07;;;-3.80;99.90;;;;;;4935306;29;20205;-76
2020/12/27 03:08:36;;;;;;;8.57;7.67;;;-3.90;99.90;;;;;;4935760;29;20643;-77
2020/12/27 03:11:02;;;;;;;11.47;8.23;;;-3.90;99.90;;;;;;4935441;29;20205;-77
2020/12/27 03:13:28;;;;;;;9.73;7.80;;;-3.90;99.90;;;;;;4935426;29;20189;-77
2020/12/27 03:15:54;;;;;;;9.07;8.13;;;-3.90;99.90;;;;;;4934934;29;20197;-77
2020/12/27 03:18:23;;;;;;;19.20;9.93;;;-3.90;99.90;;;;;;4933762;29;20167;-77
2020/12/27 03:20:50;;;;;;;10.33;7.27;;;-3.90;99.90;;;;;;4931116;29;20186;-77
2020/12/27 03:23:16;;;;;;;10.40;8.77;;;-3.90;99.90;;;;;;4929850;28;20196;-77
2020/12/27 03:25:42;;;;;;;12.17;7.40;;;-3.90;99.90;;;;;;4933021;29;20197;-77
2020/12/27 03:28:09;;;;;;;12.23;8.27;;;-3.90;99.90;;;;;;4934444;29;20664;-77
2020/12/27 03:30:34;;;;;;;72.20;22.50;;;-3.90;99.90;;;;;;4935093;29;20189;-77
2020/12/27 03:33:00;;;;;;;9.93;8.40;;;-3.90;99.90;;;;;;4933742;29;20546;-77
2020/12/27 03:35:26;;;;;;;23.90;10.93;;;-3.90;99.90;;;;;;4934288;29;20306;-77
2020/12/27 03:37:52;;;;;;;15.80;7.97;;;-3.90;99.90;;;;;;4933690;29;20643;-77
2020/12/27 03:40:17;;;;;;;79.07;24.63;;;-3.90;99.90;;;;;;4933786;29;20237;-76
2020/12/27 03:42:44;;;;;;;10.23;7.63;;;-3.90;99.90;;;;;;4934987;29;20225;-77
2020/12/27 03:45:09;;;;;;;14.27;8.93;;;-3.90;99.90;;;;;;4934405;29;20657;-77
2020/12/27 03:47:35;;;;;;;15.93;9.83;;;-3.90;99.90;;;;;;4935229;29;20173;-77
2020/12/27 03:50:03;;;;;;;9.40;7.80;;;-3.90;99.90;;;;;;4935207;29;20209;-77
2020/12/27 03:52:29;;;;;;;8.03;7.27;;;-3.80;99.90;;;;;;4935229;29;20185;-77
2020/12/27 03:54:55;;;;;;;13.50;8.00;;;-3.90;99.90;;;;;;4934439;29;20744;-77
2020/12/27 03:57:21;;;;;;;8.47;7.50;;;-3.90;99.90;;;;;;4935278;29;20173;-77
2020/12/27 03:59:46;;;;;;;8.97;7.20;;;-4.00;99.90;;;;;;4934832;29;20181;-77
2020/12/27 04:02:12;;;;;;;8.20;7.07;;;-3.90;99.90;;;;;;4935192;29;20233;-77
2020/12/27 04:04:38;;;;;;;17.90;12.87;;;-4.00;99.90;;;;;;4934645;29;20233;-77
2020/12/27 04:07:04;;;;;;;10.40;8.03;;;-4.00;99.90;;;;;;4934820;29;20648;-77
2020/12/27 04:09:30;;;;;;;7.43;6.63;;;-4.00;99.90;;;;;;4933425;29;20210;-77
2020/12/27 04:11:56;;;;;;;8.07;6.67;;;-4.00;99.90;;;;;;4934869;29;20612;-76
2020/12/27 04:14:23;;;;;;;9.00;7.03;;;-4.00;99.90;;;;;;4935023;29;20186;-77
2020/12/27 04:16:49;;;;;;;10.63;7.50;;;-4.00;99.90;;;;;;4934728;29;20206;-77
2020/12/27 04:19:15;;;;;;;8.10;7.00;;;-4.00;99.90;;;;;;4935055;29;20186;-77
2020/12/27 04:21:47;;;;;;;23.03;11.33;;;-3.90;99.90;;;;;;4933479;29;20200;-77
2020/12/27 04:24:13;;;;;;;8.53;7.37;;;-3.90;99.90;;;;;;4934617;29;20554;-77
2020/12/27 04:26:40;;;;;;;10.23;7.37;;;-3.90;99.90;;;;;;4934508;29;20190;-77
2020/12/27 04:29:06;;;;;;;13.37;8.27;;;-3.90;99.90;;;;;;4934245;29;20206;-77
2020/12/27 04:31:32;;;;;;;44.73;19.83;;;-4.00;99.90;;;;;;4934665;29;20206;-76
2020/12/27 04:33:58;;;;;;;71.47;27.47;;;-3.90;99.90;;;;;;4934768;29;20170;-77
2020/12/27 04:36:23;;;;;;;11.20;8.87;;;-4.00;99.90;;;;;;4933785;29;20203;-77
2020/12/27 04:38:49;;;;;;;9.60;7.00;;;-4.00;99.90;;;;;;4934666;29;20170;-77
2020/12/27 04:41:17;;;;;;;7.60;6.80;;;-4.00;99.90;;;;;;4934516;29;20255;-76
2020/12/27 04:43:44;;;;;;;12.97;8.40;;;-4.00;99.90;;;;;;4934565;29;20701;-77
2020/12/27 04:46:11;;;;;;;8.40;7.17;;;-4.00;99.90;;;;;;4932861;29;20331;-77
2020/12/27 04:48:38;;;;;;;10.60;7.87;;;-4.00;99.90;;;;;;4937783;29;20185;-77
2020/12/27 04:51:06;;;;;;;10.00;8.23;;;-4.00;99.90;;;;;;4938134;29;20607;-77
2020/12/27 04:53:34;;;;;;;7.17;6.47;;;-4.10;99.90;;;;;;4936708;29;20174;-76
2020/12/27 04:56:04;;;;;;;10.17;7.87;;;-4.00;99.90;;;;;;4937249;29;20701;-77
2020/12/27 04:58:31;;;;;;;9.60;6.80;;;-4.00;99.90;;;;;;4938140;29;20174;-77
2020/12/27 05:00:59;;;;;;;7.97;7.17;;;-4.00;99.90;;;;;;4936121;29;20193;-77
2020/12/27 05:03:25;;;;;;;9.40;7.30;;;-4.00;99.90;;;;;;4937261;29;20568;-77
2020/12/27 05:05:52;;;;;;;7.43;6.53;;;-4.00;99.90;;;;;;4935067;29;20219;-77
2020/12/27 05:08:19;;;;;;;11.23;9.10;;;-4.00;99.90;;;;;;4934973;29;20261;-77
2020/12/27 05:10:45;;;;;;;6.70;6.00;;;-4.00;99.90;;;;;;4935200;29;20206;-76
2020/12/27 05:13:13;;;;;;;8.07;6.57;;;-4.10;99.90;;;;;;4936755;29;20249;-76
2020/12/27 05:15:39;;;;;;;8.40;7.43;;;-4.10;99.90;;;;;;4936385;29;20194;-76
2020/12/27 05:18:06;;;;;;;8.73;7.87;;;-4.10;99.90;;;;;;4937756;29;20182;-77
2020/12/27 05:20:37;;;;;;;7.77;6.97;;;-4.10;99.90;;;;;;4937710;29;20281;-77
2020/12/27 05:23:05;;;;;;;20.77;12.47;;;-4.20;99.90;;;;;;4937714;29;20204;-77
2020/12/27 05:25:38;;;;;;;7.83;6.90;;;-4.20;99.90;;;;;;4937365;29;20197;-77
2020/12/27 05:28:09;;;;;;;9.23;6.60;;;-4.20;99.90;;;;;;4937490;29;20644;-77
2020/12/27 05:30:36;;;;;;;26.90;15.97;;;-4.20;99.90;;;;;;4937252;29;20245;-77
2020/12/27 05:33:16;;;;;;;7.63;6.93;;;-4.30;99.90;;;;;;4937282;29;20178;-77
2020/12/27 05:35:42;;;;;;;11.37;10.20;;;-4.30;99.90;;;;;;4935516;29;20193;-77
2020/12/27 05:38:09;;;;;;;9.10;8.20;;;-4.30;99.90;;;;;;4935821;29;20175;-77
2020/12/27 05:40:40;;;;;;;8.00;7.13;;;-4.20;99.90;;;;;;4937060;29;20170;-77
2020/12/27 05:43:14;;;;;;;8.67;6.70;;;-4.10;99.90;;;;;;4937077;29;20246;-77
2020/12/27 05:45:40;;;;;;;7.73;6.90;;;-4.10;99.90;;;;;;4936557;29;20281;-77
2020/12/27 05:48:07;;;;;;;6.93;6.20;;;-4.10;99.90;;;;;;4936975;29;20185;-77
2020/12/27 05:50:41;;;;;;;8.27;7.47;;;-4.00;99.90;;;;;;4937119;29;20202;-77
2020/12/27 05:53:18;;;;;;;7.30;6.47;;;-3.90;99.90;;;;;;4937332;29;20228;-77
2020/12/27 05:55:47;;;;;;;7.13;6.20;;;-3.80;99.90;;;;;;4936503;29;20691;-78
2020/12/27 05:58:18;;;;;;;6.63;6.03;;;-3.70;99.90;;;;;;4936118;29;20170;-77
2020/12/27 06:00:49;;;;;;;7.60;6.40;;;-3.70;99.90;;;;;;4936799;29;20177;-77
2020/12/27 06:03:23;;;;;;;7.63;6.47;;;-3.80;99.90;;;;;;4935209;29;20174;-77
2020/12/27 06:05:54;;;;;;;7.40;6.43;;;-3.90;99.90;;;;;;4936314;29;20200;-78
2020/12/27 06:08:29;;;;;;;6.70;6.00;;;-3.90;99.90;;;;;;4936662;29;20203;-78
2020/12/27 06:11:00;;;;;;;10.00;8.03;;;-4.00;99.90;;;;;;4936676;29;20253;-77
2020/12/27 06:13:29;;;;;;;5.77;5.27;;;-4.00;99.90;;;;;;4935128;29;20272;-77
2020/12/27 06:15:59;;;;;;;7.10;6.40;;;-4.00;99.90;;;;;;4936079;29;20190;-77
2020/12/27 06:18:29;;;;;;;6.83;6.17;;;-4.00;99.90;;;;;;4936457;29;20178;-77
2020/12/27 06:21:07;;;;;;;10.03;6.20;;;-4.00;99.90;;;;;;4935227;29;20558;-77
2020/12/27 06:23:34;;;;;;;6.73;6.10;;;-4.00;99.90;;;;;;4936514;29;20205;-77
2020/12/27 06:26:02;;;;;;;6.90;6.20;;;-4.10;99.90;;;;;;4936129;29;20202;-77
2020/12/27 06:28:29;;;;;;;9.13;6.47;;;-4.10;99.90;;;;;;4936210;29;20179;-77
2020/12/27 06:30:57;;;;;;;9.33;6.70;;;-4.20;99.90;;;;;;4936202;29;20233;-77
2020/12/27 06:33:35;;;;;;;7.13;6.43;;;-4.30;99.90;;;;;;4935988;29;20167;-77
2020/12/27 06:36:03;;;;;;;7.47;6.77;;;-4.30;99.90;;;;;;4935620;29;20209;-77
2020/12/27 06:38:31;;;;;;;6.93;6.13;;;-4.30;99.90;;;;;;4934717;29;20186;-77
2020/12/27 06:41:11;;;;;;;7.67;6.87;;;-4.40;99.90;;;;;;4936233;29;20236;-77
2020/12/27 06:43:42;;;;;;;7.27;6.47;;;-4.40;99.90;;;;;;4936221;29;20197;-77
2020/12/27 06:46:27;;;;;;;6.93;6.10;;;-4.40;99.90;;;;;;4935328;29;20225;-77
2020/12/27 06:49:13;;;;;;;6.90;6.20;;;-4.40;99.90;;;;;;4934371;29;20189;-77
2020/12/27 06:51:44;;;;;;;6.00;5.43;;;-4.30;99.90;;;;;;4936087;29;20667;-77
2020/12/27 06:54:12;;;;;;;7.60;5.90;;;-4.20;99.90;;;;;;4935738;29;20174;-77
2020/12/27 06:56:42;;;;;;;6.73;6.03;;;-4.20;99.90;;;;;;4935526;29;20245;-77
2020/12/27 06:59:08;;;;;;;6.43;5.77;;;-4.10;99.90;;;;;;4935636;29;20178;-77
2020/12/27 07:01:35;;;;;;;7.13;6.07;;;-4.10;99.90;;;;;;4935920;29;20201;-76
2020/12/27 07:04:15;;;;;;;6.93;5.93;;;-4.10;99.90;;;;;;4935581;29;20545;-77
2020/12/27 07:06:49;;;;;;;8.73;6.70;;;-4.10;99.90;;;;;;4934213;29;20182;-77
2020/12/27 07:09:23;;;;;;;7.20;5.90;;;-4.00;99.90;;;;;;4933968;29;20225;-77
2020/12/27 07:12:06;;;;;;;6.20;5.60;;;-4.10;99.90;;;;;;4934273;29;20183;-76
2020/12/27 07:14:42;;;;;;;6.20;5.57;;;-4.10;99.90;;;;;;4933703;29;20767;-77
2020/12/27 07:17:10;;;;;;;6.33;5.63;;;-4.10;99.90;;;;;;4934121;29;20648;-78
2020/12/27 07:19:36;;;;;;;6.07;5.33;;;-4.10;99.90;;;;;;4935361;29;20594;-77
2020/12/27 07:22:09;;;;;;;6.10;5.50;;;-4.00;99.90;;;;;;4935371;29;20181;-77
2020/12/27 07:24:37;;;;;;;7.17;5.80;;;-4.10;99.90;;;;;;4934823;29;20249;-77
2020/12/27 07:27:09;;;;;;;6.87;6.17;;;-4.20;99.90;;;;;;4935889;29;20213;-77
2020/12/27 07:29:36;;;;;;;6.30;5.50;;;-4.30;99.90;;;;;;4935280;29;20292;-77
2020/12/27 07:32:03;;;;;;;6.67;5.80;;;-4.30;99.90;;;;;;4935166;29;20739;-77
2020/12/27 07:34:31;;;;;;;6.37;5.73;;;-4.30;99.90;;;;;;4933583;29;20186;-77
2020/12/27 07:37:01;;;;;;;7.07;6.10;;;-4.30;99.90;;;;;;4934797;29;20657;-77
2020/12/27 07:39:56;;;;;;;7.37;5.87;;;-4.30;99.90;;;;;;4934512;29;20648;-77
2020/12/27 07:42:27;;;;;;;8.23;6.90;;;-4.20;99.90;;;;;;4935006;29;20179;-77
2020/12/27 07:44:54;;;;;;;8.63;6.43;;;-4.10;99.90;;;;;;4934696;29;20227;-77
2020/12/27 07:47:20;;;;;;;6.60;5.87;;;-4.00;99.90;;;;;;4935234;29;20264;-77
2020/12/27 07:50:09;;;;;;;7.67;6.27;;;-3.90;99.90;;;;;;4933894;29;20290;-77
2020/12/27 07:52:56;;;;;;;6.27;5.30;;;-3.90;99.90;;;;;;4933994;29;20174;-78
2020/12/27 07:55:42;;;;;;;6.10;5.37;;;-3.90;99.90;;;;;;4934610;29;20617;-76
2020/12/27 07:58:08;;;;;;;7.10;6.40;;;-4.00;99.90;;;;;;4935048;29;20633;-77
2020/12/27 08:00:40;;;;;;;7.57;6.70;;;-4.00;99.90;;;;;;4917888;29;20197;-77
2020/12/27 08:03:10;;;;;;;9.77;6.13;;;-3.90;99.90;;;;;;4935043;29;20259;-77
2020/12/27 08:05:37;;;;;;;8.70;6.63;;;-3.90;99.90;;;;;;4934765;29;20201;-77
2020/12/27 08:08:11;;;;;;;9.53;8.53;;;-3.80;99.90;;;;;;4934814;29;20747;-77
2020/12/27 08:10:38;;;;;;;11.10;9.90;;;-3.70;99.90;;;;;;4935091;29;20189;-79
2020/12/27 08:13:06;;;;;;;12.87;9.33;;;-3.60;99.90;;;;;;4935041;29;20185;-77
2020/12/27 08:15:40;;;;;;;7.83;7.13;;;-3.50;99.90;;;;;;4934485;29;20272;-77
2020/12/27 08:18:07;;;;;;;6.93;6.23;;;-3.50;99.90;;;;;;4934076;29;20185;-77
2020/12/27 08:20:49;;;;;;;27.63;12.37;;;-3.50;99.90;;;;;;4932736;29;20174;-77
2020/12/27 08:23:16;;;;;;;24.00;12.57;;;-3.50;99.90;;;;;;4937842;29;20656;-77
2020/12/27 08:25:41;;;;;;;7.10;6.13;;;-3.50;99.90;;;;;;4938194;29;20717;-77
2020/12/27 08:28:10;;;;;;;6.77;6.00;;;-3.50;99.90;;;;;;4938709;29;20300;-77
2020/12/27 08:30:37;;;;;;;11.97;8.63;;;-3.50;99.90;;;;;;4938600;29;20190;-77
2020/12/27 08:33:04;;;;;;;8.67;7.23;;;-3.40;99.90;;;;;;4937115;29;20185;-77
2020/12/27 08:35:29;;;;;;;17.03;10.47;;;-3.30;99.90;;;;;;4936666;29;20499;-77
2020/12/27 08:38:12;;;;;;;11.07;9.30;;;-3.20;99.90;;;;;;4937324;29;20269;-77
2020/12/27 08:40:43;;;;;;;9.87;8.87;;;-3.10;99.90;;;;;;4940706;29;20181;-79
2020/12/27 08:43:26;;;;;;;9.43;8.47;;;-3.10;99.90;;;;;;4934672;29;20241;-79
2020/12/27 08:45:58;;;;;;;14.50;10.30;;;-3.00;99.90;;;;;;4941566;29;20209;-79
2020/12/27 08:48:32;;;;;;;10.90;9.77;;;-3.00;99.90;;;;;;4942694;29;20173;-78
2020/12/27 08:51:02;;;;;;;9.77;8.77;;;-3.00;99.90;;;;;;4942342;29;20684;-79
2020/12/27 08:53:33;;;;;;;10.00;7.97;;;-3.00;99.90;;;;;;4942629;29;20265;-79
2020/12/27 08:56:02;;;;;;;9.10;8.20;;;-2.90;99.90;;;;;;4941750;29;20684;-79
2020/12/27 08:58:28;;;;;;;9.97;8.97;;;-2.80;99.90;;;;;;4943011;29;20644;-79
2020/12/27 09:00:54;;;;;;;12.57;9.83;;;-2.70;99.90;;;;;;4942936;29;20245;-79
2020/12/27 09:03:20;;;;;;;11.17;8.70;;;-2.70;99.90;;;;;;4940984;29;20182;-79
2020/12/27 09:05:45;;;;;;;9.57;8.67;;;-2.60;99.90;;;;;;4942377;29;20225;-79
2020/12/27 09:08:19;;;;;;;12.10;9.00;;;-2.60;99.90;;;;;;4943350;29;20182;-79
2020/12/27 09:10:45;;;;;;;9.03;8.13;;;-2.60;99.90;;;;;;4943304;29;20198;-79
2020/12/27 09:13:12;;;;;;;8.67;7.77;;;-2.60;99.90;;;;;;4943374;29;20193;-79
2020/12/27 09:15:47;;;;;;;10.97;8.40;;;-2.60;99.90;;;;;;4943211;29;20198;-80
2020/12/27 09:18:26;;;;;;;10.23;8.67;;;-2.50;99.90;;;;;;4943015;29;20206;-79
2020/12/27 09:21:00;;;;;;;10.77;9.50;;;-2.40;99.90;;;;;;4943323;29;20210;-78
2020/12/27 09:23:26;;;;;;;11.23;9.57;;;-2.40;99.90;;;;;;4943206;29;20272;-79
2020/12/27 09:26:06;;;;;;;9.80;8.70;;;-2.40;99.90;;;;;;4942385;29;20617;-79
2020/12/27 09:28:34;;;;;;;23.00;12.97;;;-2.30;99.90;;;;;;4943188;29;20232;-78
2020/12/27 09:31:01;;;;;;;10.43;9.30;;;-2.30;99.90;;;;;;4943688;29;20197;-79
2020/12/27 09:33:31;;;;;;;12.40;9.80;;;-2.20;99.90;;;;;;4942806;29;20712;-78
2020/12/27 09:36:00;;;;;;;9.47;8.47;;;-2.20;99.90;;;;;;4943200;29;20191;-78
2020/12/27 09:38:28;;;;;;;9.27;8.30;;;-2.20;99.90;;;;;;4943124;29;20526;-79
2020/12/27 09:41:13;;;;;;;19.47;14.17;;;-2.10;99.90;;;;;;4942341;29;20186;-80
2020/12/27 09:43:58;;;;;;;9.83;8.77;;;-2.00;99.90;;;;;;4942932;29;20252;-79
2020/12/27 09:46:46;;;;;;;8.63;7.73;;;-2.00;99.90;;;;;;4941467;29;20572;-78
2020/12/27 09:49:26;;;;;;;9.10;7.63;;;-1.90;99.90;;;;;;4942659;29;20658;-78
2020/12/27 09:52:01;;;;;;;7.70;6.63;;;-1.90;99.90;;;;;;4941430;29;20179;-79
2020/12/27 09:54:29;;;;;;;8.47;7.57;;;-1.80;99.90;;;;;;4941296;29;20782;-79
2020/12/27 09:56:55;;;;;;;7.43;6.73;;;-1.80;99.90;;;;;;4941039;29;20182;-79
2020/12/27 09:59:20;;;;;;;7.00;6.30;;;-1.70;99.90;;;;;;4941824;29;20182;-79
2020/12/27 10:01:46;;;;;;;7.47;6.70;;;-1.60;99.90;;;;;;4954011;28;20175;-78
2020/12/27 10:04:11;;;;;;;9.90;7.87;;;-1.60;99.90;;;;;;4940489;29;20548;-79
2020/12/27 10:06:37;;;;;;;9.27;7.30;;;-1.60;99.90;;;;;;4941716;29;20250;-78
2020/12/27 10:09:03;;;;;;;22.37;11.57;;;-1.60;99.90;;;;;;4941361;29;20555;-80
2020/12/27 10:11:29;;;;;;;11.83;9.23;;;-1.50;99.90;;;;;;4942064;29;20183;-79
2020/12/27 10:13:55;;;;;;;9.43;7.73;;;-1.40;99.90;;;;;;4941153;29;20182;-80
2020/12/27 10:16:21;;;;;;;11.33;7.63;;;-1.40;99.90;;;;;;4941320;29;20213;-79
2020/12/27 10:18:46;;;;;;;10.10;8.53;;;-1.30;99.90;;;;;;4941904;29;20184;-78
2020/12/27 10:21:12;;;;;;;10.13;7.97;;;-1.40;99.90;;;;;;4954129;29;20185;-79
2020/12/27 10:23:37;;;;;;;8.30;7.50;;;-1.40;99.90;;;;;;4941889;28;20186;-79
2020/12/27 10:26:06;;;;;;;8.67;7.17;;;-1.30;99.90;;;;;;4944907;29;20204;-79
2020/12/27 10:28:33;;;;;;;10.47;8.43;;;-1.30;99.90;;;;;;4944387;29;20176;-79
2020/12/27 10:30:59;;;;;;;11.63;8.90;;;-1.30;99.90;;;;;;4944757;29;20222;-79
2020/12/27 10:33:25;;;;;;;12.57;9.03;;;-1.20;99.90;;;;;;4942112;29;20208;-79
2020/12/27 10:35:51;;;;;;;11.80;8.37;;;-1.10;99.90;;;;;;4939360;29;20206;-79
2020/12/27 10:38:16;;;;;;;10.90;8.10;;;-1.00;99.90;;;;;;4938297;29;20323;-79
2020/12/27 10:40:42;;;;;;;9.90;7.80;;;-1.00;99.90;;;;;;4940322;29;20767;-79
2020/12/27 10:43:07;;;;;;;8.60;7.67;;;-1.00;99.90;;;;;;4939593;29;20269;-79
2020/12/27 10:45:33;;;;;;;9.17;6.60;;;-1.00;99.90;;;;;;4938278;29;20220;-79
2020/12/27 10:47:58;;;;;;;7.87;7.07;;;-1.00;99.90;;;;;;4938616;29;20192;-79
2020/12/27 10:50:24;;;;;;;7.33;6.63;;;-1.10;99.90;;;;;;4938672;29;20284;-79
2020/12/27 10:52:50;;;;;;;12.50;6.17;;;-1.10;99.90;;;;;;4939196;29;20671;-78
2020/12/27 10:55:15;;;;;;;7.10;6.40;;;-1.00;99.90;;;;;;4938724;29;20203;-79
2020/12/27 10:57:41;;;;;;;8.83;6.40;;;-0.90;99.90;;;;;;4937580;29;20184;-79
2020/12/27 11:00:07;;;;;;;7.13;6.43;;;-0.80;99.90;;;;;;4938152;29;20208;-79
2020/12/27 11:02:32;;;;;;;5.90;5.30;;;-0.80;99.90;;;;;;4938940;29;20189;-79
2020/12/27 11:04:58;;;;;;;7.03;5.57;;;-0.80;99.90;;;;;;4937644;29;20276;-79
2020/12/27 11:07:23;;;;;;;7.43;6.00;;;-0.70;99.90;;;;;;4939484;29;20538;-79
2020/12/27 11:09:49;;;;;;;11.80;6.77;;;-0.60;99.90;;;;;;4938989;29;20211;-78
2020/12/27 11:12:15;;;;;;;7.67;6.53;;;-0.60;99.90;;;;;;4938826;29;20185;-78
2020/12/27 11:14:41;;;;;;;7.67;5.57;;;-0.50;99.90;;;;;;4938259;29;20203;-79
2020/12/27 11:17:07;;;;;;;6.27;5.67;;;-0.40;99.90;;;;;;4935838;29;20185;-78
2020/12/27 11:19:33;;;;;;;8.00;5.73;;;-0.30;99.90;;;;;;4938963;29;20216;-78
2020/12/27 11:21:59;;;;;;;5.83;5.23;;;-0.30;99.90;;;;;;4939067;29;20189;-78
2020/12/27 11:24:25;;;;;;;5.27;4.80;;;-0.20;99.90;;;;;;4938726;29;20233;-79
2020/12/27 11:26:54;;;;;;;5.63;5.10;;;-0.20;99.90;;;;;;4938809;29;20181;-79
2020/12/27 11:29:20;;;;;;;6.70;6.00;;;-0.20;99.90;;;;;;4938838;29;20209;-79
2020/12/27 11:31:46;;;;;;;9.97;5.50;;;-0.20;99.90;;;;;;4921594;29;20184;-79
2020/12/27 11:34:12;;;;;;;5.83;5.13;;;-0.10;99.90;;;;;;4938356;29;20648;-79
2020/12/27 11:36:37;;;;;;;6.70;6.03;;;-0.10;99.90;;;;;;4938435;29;20205;-79
2020/12/27 11:39:03;;;;;;;5.67;5.07;;;0.00;99.90;;;;;;4937703;29;20207;-78
2020/12/27 11:41:29;;;;;;;6.00;5.37;;;0.00;99.90;;;;;;4938699;29;20189;-79
2020/12/27 11:43:55;;;;;;;6.20;5.57;;;0.10;99.90;;;;;;4937700;29;20236;-79
2020/12/27 11:46:26;;;;;;;6.63;5.70;;;0.10;99.90;;;;;;4937514;29;20700;-79
2020/12/27 11:48:52;;;;;;;7.57;5.50;;;0.10;99.90;;;;;;4938739;29;20227;-80
2020/12/27 11:51:17;;;;;;;7.33;4.90;;;0.10;99.90;;;;;;4938491;29;20197;-79
2020/12/27 11:53:43;;;;;;;5.37;4.87;;;0.00;99.90;;;;;;4938509;29;20183;-79
2020/12/27 11:56:08;;;;;;;5.50;5.00;;;0.00;99.90;;;;;;4937970;29;20213;-78
2020/12/27 11:58:38;;;;;;;6.87;5.93;;;-0.10;99.90;;;;;;4942233;29;20650;-79
2020/12/27 12:01:04;;;;;;;7.57;6.40;;;-0.10;99.90;;;;;;4941003;29;20198;-78
2020/12/27 12:03:30;;;;;;;9.17;6.97;;;-0.10;99.90;;;;;;4942232;29;20188;-78
2020/12/27 12:05:56;;;;;;;6.23;5.60;;;-0.10;99.90;;;;;;4942093;29;20199;-77
2020/12/27 12:08:21;;;;;;;6.37;5.30;;;-0.10;99.90;;;;;;4941856;29;20175;-77
2020/12/27 12:10:47;;;;;;;8.33;5.67;;;-0.10;99.90;;;;;;4942017;29;20274;-77
2020/12/27 12:13:13;;;;;;;8.13;5.90;;;0.00;99.90;;;;;;4941909;29;20715;-78
2020/12/27 12:15:41;;;;;;;7.17;5.10;;;0.00;99.90;;;;;;4941017;29;20322;-78
2020/12/27 12:18:07;;;;;;;6.07;5.27;;;0.00;99.90;;;;;;4941420;29;20189;-78
2020/12/27 12:20:42;;;;;;;6.67;5.57;;;0.10;99.90;;;;;;4941258;29;20187;-78
2020/12/27 12:23:08;;;;;;;6.43;5.10;;;0.10;99.90;;;;;;4940104;29;20236;-79
2020/12/27 12:25:34;;;;;;;11.10;6.57;;;0.20;99.90;;;;;;4941387;29;20204;-78
2020/12/27 12:28:00;;;;;;;8.67;5.77;;;0.20;99.90;;;;;;4941152;29;20195;-78
2020/12/27 12:30:26;;;;;;;8.43;6.07;;;0.30;99.90;;;;;;4941076;29;20614;-78
2020/12/27 12:32:52;;;;;;;5.87;4.90;;;0.30;99.90;;;;;;4941110;29;20216;-79
2020/12/27 12:35:18;;;;;;;7.83;5.87;;;0.30;99.90;;;;;;4939086;29;20723;-77
2020/12/27 12:37:44;;;;;;;5.87;4.77;;;0.40;99.90;;;;;;4939701;29;20217;-78
2020/12/27 12:40:10;;;;;;;6.00;5.13;;;0.50;99.90;;;;;;4939772;29;20216;-78
2020/12/27 12:42:37;;;;;;;5.97;4.67;;;0.60;99.90;;;;;;4939596;29;20193;-77
2020/12/27 12:45:05;;;;;;;5.40;4.77;;;0.70;99.90;;;;;;4937867;29;20256;-78
2020/12/27 12:47:31;;;;;;;7.30;4.90;;;0.70;99.90;;;;;;4939995;29;20178;-78
2020/12/27 12:49:57;;;;;;;4.83;4.37;;;0.80;99.90;;;;;;4939117;29;20267;-77
2020/12/27 12:52:22;;;;;;;5.03;4.60;;;0.80;99.90;;;;;;4937467;29;20189;-77